createdAt,value
2023-03-17T22:19:25.292Z,95086.00
2023-03-17T22:21:51.805Z,95091.44
2023-03-17T22:24:18.375Z,95101.72
2023-03-17T22:26:44.840Z,95096.47
2023-03-17T22:29:11.250Z,95099.66
2023-03-17T22:31:37.865Z,95097.06
2023-03-17T22:34:04.321Z,95100.63
2023-03-17T22:36:31.592Z,95102.59
2023-03-17T22:38:59.185Z,95101.66
2023-03-17T22:41:28.140Z,95097.91
2023-03-17T22:43:54.649Z,95103.13
2023-03-17T22:46:21.640Z,95108.75
2023-03-17T22:48:48.380Z,95107.34
2023-03-17T22:51:18.081Z,95110.63
2023-03-17T22:53:45.391Z,95114.91
2023-03-17T22:56:13.555Z,95111.03
2023-03-17T22:58:40.452Z,95105.88
2023-03-17T23:01:07.939Z,95108.06
2023-03-17T23:03:35.031Z,95107.25
2023-03-17T23:06:03.836Z,95108.19
2023-03-17T23:08:34.928Z,95096.56
2023-03-17T23:11:05.715Z,95098.38
2023-03-17T23:13:32.204Z,95100.72
2023-03-17T23:15:58.639Z,95103.72
2023-03-17T23:18:25.341Z,95106.19
2023-03-17T23:20:52.451Z,95117.75
2023-03-17T23:23:19.915Z,95115.97
2023-03-17T23:25:46.919Z,95111.59
2023-03-17T23:28:15.481Z,95122.66
2023-03-17T23:30:43.802Z,95127.34
2023-03-17T23:33:10.466Z,95123.91
2023-03-17T23:35:37.407Z,95132.03
2023-03-17T23:38:04.406Z,95140.72
2023-03-17T23:40:31.900Z,95134.47
2023-03-17T23:42:58.580Z,95138.44
2023-03-17T23:45:25.234Z,95133.53
2023-03-17T23:47:52.754Z,95120.75
2023-03-17T23:50:19.907Z,95115.19
2023-03-17T23:52:47.158Z,95110.38
2023-03-17T23:55:14.486Z,95110.16
2023-03-17T23:57:41.488Z,95114.72
